NORTHEAST SUFFOLK  -  Special Weather Statement Special Weather Statement        NORTHERN NASSAU  -  Special Weather Statement Special Weather Statement        NORTHWEST SUFFOLK  -  Special Weather Statement Special Weather Statement        SOUTHEAST SUFFOLK  -  Special Weather Statement Special Weather Statement        SOUTHERN NASSAU  -  Special Weather Statement Special Weather Statement        SOUTHWEST SUFFOLK  -  Special Weather Statement Special Weather Statement      

Active alerts

Northern Nassau
  Details for Northern Nassau Special Weather Statement
Southern Nassau
  Details for Southern Nassau Special Weather Statement
Northwest Suffolk
  Details for Northwest Suffolk Special Weather Statement
Southwest Suffolk
  Details for Southwest Suffolk Special Weather Statement
Northeast Suffolk
  Details for Northeast Suffolk Special Weather Statement
Southeast Suffolk
  Details for Southeast Suffolk Special Weather Statement


WXM80 ListenWXM80 Stop

You find our weather info also at:

UK Metoffice

WeatherCloud

Weather Underground

Northeastern Weather Network

AWEKAS

Citizen Weather Observer Program (CWOP)

HAMweather, WeatherForYou, PWS Weather


Weather Underground History page Text

Daily Summary for May 23, 2017 Units:  Metric    English   Both
« Previous Day
Next Day »
Daily Weekly Monthly Yearly Custom
  High: Low: Average:
Temperature: 21.8 °C 12.7 °C 16.8 °C
Dew Point: 14.2 °C 10.7 °C 13 °C
Humidity: 97 % 55 % 80 %
Wind Speed: 6.9 km/h 0 km/h 1.1 km/h
Wind Gust: 14.5 km/h - -
Wind:- - SSE
Pressure: 1013.4 hPa 1007.7 hPa -
Precipitation: 0 mm    
Historical Graphs
 
 
Tabular Data for May 23, 2017
Time Temperature Dew Point Pressure Wind Wind Speed Wind Gust Humidity Rainfall Rate (Hourly)
00:00 14.6 °C 14.1 °C 1012.8 hPa Calm     97 % 0 mm
00:05 14.5 °C 14.1 °C 1012.8 hPa Calm     97 % 0 mm
00:10 14.5 °C 14.1 °C 1012.8 hPa Calm   1.9 km/h 97 % 0 mm
00:15 14.5 °C 14.1 °C 1012.8 hPa Calm     97 % 0 mm
00:20 14.5 °C 14.1 °C 1012.8 hPa North 0.2 km/h 3.7 km/h 97 % 0 mm
00:25 14.5 °C 14.1 °C 1012.8 hPa Calm   1.9 km/h 97 % 0 mm
00:30 14.5 °C 14.1 °C 1012.8 hPa North 0.2 km/h   97 % 0 mm
00:35 14.5 °C 14.1 °C 1012.8 hPa North 0.6 km/h 3.7 km/h 97 % 0 mm
00:40 14.5 °C 14.1 °C 1012.8 hPa North 0.3 km/h 1.9 km/h 97 % 0 mm
00:45 14.5 °C 14.1 °C 1012.4 hPa Calm     97 % 0 mm
00:50 14.5 °C 14.1 °C 1012.4 hPa North 1.4 km/h 5.6 km/h 97 % 0 mm
00:55 14.4 °C 14 °C 1012.8 hPa Calm     97 % 0 mm
01:01 14.4 °C 14 °C 1012.8 hPa Calm     97 % 0 mm
01:06 14.4 °C 14 °C 1012.8 hPa North 0.8 km/h 1.9 km/h 97 % 0 mm
01:11 14.4 °C 14 °C 1012.8 hPa Calm   1.6 km/h 97 % 0 mm
01:16 14.4 °C 14 °C 1012.8 hPa North 1.6 km/h 1.6 km/h 97 % 0 mm
01:21 14.4 °C 14 °C 1012.8 hPa WNW 0.6 km/h 5.6 km/h 97 % 0 mm
01:26 14.4 °C 14 °C 1012.8 hPa WNW 3.2 km/h 6.4 km/h 97 % 0 mm
01:31 14.4 °C 14 °C 1012.8 hPa WNW 0.3 km/h 3.7 km/h 97 % 0 mm
01:36 14.4 °C 14 °C 1012.8 hPa WNW 5.6 km/h 11.3 km/h 97 % 0 mm
01:41 14.4 °C 13.9 °C 1012.8 hPa NW 4 km/h 7.4 km/h 97 % 0 mm
01:46 14.4 °C 13.9 °C 1012.8 hPa NW 3.2 km/h 12.9 km/h 97 % 0 mm
01:51 14.4 °C 13.9 °C 1012.8 hPa Calm   4.8 km/h 97 % 0 mm
01:56 14.4 °C 13.9 °C 1012.8 hPa NNW 1.6 km/h 14.5 km/h 97 % 0 mm
02:01 14.3 °C 13.9 °C 1012.8 hPa NW 1.8 km/h 5.6 km/h 97 % 0 mm
02:06 14.3 °C 13.9 °C 1012.8 hPa NW 5.5 km/h 11.1 km/h 97 % 0 mm
02:11 14.3 °C 13.8 °C 1012.8 hPa WNW 2.1 km/h 5.6 km/h 97 % 0 mm
02:16 14.3 °C 13.8 °C 1012.8 hPa WNW 3.4 km/h 5.6 km/h 97 % 0 mm
02:21 14.3 °C 13.8 °C 1012.8 hPa NW 2.1 km/h 3.7 km/h 97 % 0 mm
02:26 14.2 °C 13.8 °C 1012.4 hPa WNW 1.9 km/h 7.4 km/h 97 % 0 mm
02:31 14.2 °C 13.8 °C 1012.8 hPa WNW 0.5 km/h 1.6 km/h 97 % 0 mm
02:36 14.2 °C 13.8 °C 1012.4 hPa NW 0.8 km/h 5.6 km/h 97 % 0 mm
02:41 14.2 °C 13.7 °C 1012.4 hPa Calm   5.6 km/h 97 % 0 mm
02:46 14.2 °C 13.7 °C 1012.4 hPa WNW 3.2 km/h 6.4 km/h 97 % 0 mm
02:51 14.2 °C 13.7 °C 1012.1 hPa Calm   4.8 km/h 97 % 0 mm
02:56 14.2 °C 13.7 °C 1012.1 hPa NNW 1.1 km/h 3.7 km/h 97 % 0 mm
03:01 14.2 °C 13.7 °C 1012.1 hPa WNW 0.3 km/h 1.9 km/h 97 % 0 mm
03:06 14.2 °C 13.7 °C 1012.1 hPa WNW 0.3 km/h 1.9 km/h 97 % 0 mm
03:11 14.2 °C 13.7 °C 1012.1 hPa WNW 0.8 km/h 3.7 km/h 97 % 0 mm
03:16 14.1 °C 13.7 °C 1012.1 hPa North 1 km/h 5.6 km/h 97 % 0 mm
03:21 14.1 °C 13.7 °C 1012.4 hPa Calm     97 % 0 mm
03:26 14.1 °C 13.7 °C 1012.4 hPa North 1.3 km/h 3.7 km/h 97 % 0 mm
03:31 14.1 °C 13.7 °C 1012.1 hPa North 0.2 km/h 1.9 km/h 97 % 0 mm
03:36 14.1 °C 13.7 °C 1012.1 hPa Calm     97 % 0 mm
03:41 14.1 °C 13.7 °C 1012.4 hPa Calm     97 % 0 mm
03:46 14.1 °C 13.7 °C 1012.4 hPa Calm   1.9 km/h 97 % 0 mm
03:51 14.1 °C 13.7 °C 1012.4 hPa NNW 3.1 km/h 5.6 km/h 97 % 0 mm
03:56 14.1 °C 13.7 °C 1012.4 hPa NNE 3.4 km/h 5.6 km/h 97 % 0 mm
04:01 14.1 °C 13.7 °C 1012.4 hPa NNE 6.6 km/h 12.9 km/h 97 % 0 mm
04:07 14.1 °C 13.7 °C 1012.4 hPa NE 3.7 km/h 9.3 km/h 97 % 0 mm
04:12 14.1 °C 13.7 °C 1012.4 hPa North 2.6 km/h 9.3 km/h 97 % 0 mm
04:17 14.1 °C 13.7 °C 1012.1 hPa Calm   3.7 km/h 97 % 0 mm
04:22 14.1 °C 13.6 °C 1012.1 hPa NNE 3.5 km/h 5.6 km/h 97 % 0 mm
04:27 14 °C 13.6 °C 1012.1 hPa NNE 2.7 km/h 6.4 km/h 97 % 0 mm
04:32 13.9 °C 13.5 °C 1012.1 hPa NE 3.2 km/h 6.4 km/h 97 % 0 mm
04:37 13.9 °C 13.4 °C 1012.4 hPa North 2.6 km/h 7.4 km/h 97 % 0 mm
04:42 13.8 °C 13.4 °C 1012.4 hPa NNE 1.3 km/h 4.8 km/h 97 % 0 mm
04:47 13.8 °C 13.3 °C 1012.4 hPa NNE 3.2 km/h 6.4 km/h 97 % 0 mm
04:52 13.7 °C 13.3 °C 1012.4 hPa North 0.5 km/h 4.8 km/h 97 % 0 mm
04:57 13.7 °C 13.2 °C 1012.4 hPa NNE 1.1 km/h 3.7 km/h 97 % 0 mm
05:02 13.7 °C 13.2 °C 1012.4 hPa Calm   1.9 km/h 97 % 0 mm
05:07 13.6 °C 13.1 °C 1012.4 hPa North 3.5 km/h 5.6 km/h 97 % 0 mm
05:12 13.5 °C 13.1 °C 1012.4 hPa North 3.5 km/h 5.6 km/h 97 % 0 mm
05:17 13.4 °C 13 °C 1012.4 hPa NNE 1.6 km/h 5.6 km/h 97 % 0 mm
05:22 13.4 °C 12.9 °C 1012.1 hPa NE 4.2 km/h 7.4 km/h 97 % 0 mm
05:27 13.3 °C 12.9 °C 1012.4 hPa NNE 4.8 km/h 8 km/h 97 % 0 mm
05:32 13.3 °C 12.8 °C 1012.4 hPa NNE 0.5 km/h 5.6 km/h 97 % 0 mm
05:37 13.2 °C 12.8 °C 1012.4 hPa NNE 3.5 km/h 5.6 km/h 97 % 0 mm
05:42 13.2 °C 12.7 °C 1012.8 hPa NNE 6.1 km/h 11.3 km/h 97 % 0 mm
05:47 13 °C 12.4 °C 1012.8 hPa North 5.8 km/h 13 km/h 96 % 0 mm
05:52 12.9 °C 12.3 °C 1012.8 hPa NNE 4.7 km/h 9.3 km/h 96 % 0 mm
05:57 12.8 °C 12.2 °C 1012.8 hPa North 6.8 km/h 8 km/h 96 % 0 mm
06:03 12.8 °C 12.2 °C 1013.1 hPa North 4.5 km/h 11.1 km/h 96 % 0 mm
06:08 12.7 °C 12.1 °C 1013.1 hPa North 3.2 km/h 5.6 km/h 96 % 0 mm
06:13 12.7 °C 12.1 °C 1012.8 hPa NNE 6.9 km/h 11.1 km/h 96 % 0 mm
06:18 12.7 °C 12.1 °C 1012.8 hPa NNE 2.4 km/h 7.4 km/h 96 % 0 mm
06:23 12.7 °C 12.1 °C 1012.8 hPa NNE 2.4 km/h 5.6 km/h 96 % 0 mm
06:28 12.8 °C 12.2 °C 1012.8 hPa NNE 2.6 km/h 5.6 km/h 96 % 0 mm
06:33 12.9 °C 12.3 °C 1013.1 hPa NNE 4.5 km/h 5.6 km/h 96 % 0 mm
06:38 13.1 °C 12.6 °C 1013.1 hPa NNE 0.2 km/h 3.7 km/h 97 % 0 mm
06:43 13.2 °C 12.8 °C 1013.1 hPa NNE 2.3 km/h 3.7 km/h 97 % 0 mm
06:48 13.4 °C 13 °C 1013.1 hPa NNE 1.6 km/h 5.6 km/h 97 % 0 mm
06:53 13.7 °C 13.2 °C 1013.1 hPa NE 1.6 km/h 3.7 km/h 97 % 0 mm
06:58 13.9 °C 13.5 °C 1013.4 hPa NE 0.8 km/h 5.6 km/h 97 % 0 mm
07:03 14.1 °C 13.7 °C 1013.4 hPa ENE 3.1 km/h 4.8 km/h 97 % 0 mm
07:08 14.3 °C 13.9 °C 1013.1 hPa NE 1.8 km/h 3.7 km/h 97 % 0 mm
07:13 14.4 °C 14 °C 1013.1 hPa NNE 1.6 km/h 5.6 km/h 97 % 0 mm
07:18 14.6 °C 14.2 °C 1013.1 hPa NE 0.3 km/h 1.9 km/h 97 % 0 mm
07:23 14.7 °C 14.1 °C 1013.1 hPa NE 1.6 km/h 3.7 km/h 96 % 0 mm
07:28 14.7 °C 13.9 °C 1013.1 hPa ENE 1.9 km/h 5.6 km/h 95 % 0 mm
07:33 14.8 °C 14 °C 1013.1 hPa NNE 2.1 km/h 3.7 km/h 95 % 0 mm
07:38 14.9 °C 14 °C 1013.1 hPa NE 1.6 km/h 5.6 km/h 94 % 0 mm
07:43 14.9 °C 13.8 °C 1013.1 hPa ENE 3.1 km/h 5.6 km/h 93 % 0 mm
07:48 14.9 °C 13.7 °C 1013.1 hPa North 2.3 km/h 9.3 km/h 92 % 0 mm
07:53 14.9 °C 13.3 °C 1013.1 hPa NNE 2.3 km/h 7.4 km/h 90 % 0 mm
07:58 14.8 °C 13.1 °C 1013.1 hPa NNE 0.8 km/h 3.7 km/h 89 % 0 mm
08:03 14.8 °C 13.1 °C 1013.1 hPa NNE 2.6 km/h 5.6 km/h 89 % 0 mm
08:08 14.9 °C 13.1 °C 1013.1 hPa NE 0.6 km/h 3.7 km/h 89 % 0 mm
08:13 14.9 °C 13.1 °C 1013.1 hPa North 2.4 km/h 5.6 km/h 89 % 0 mm
08:18 14.9 °C 13.1 °C 1013.1 hPa NE 0.5 km/h 5.6 km/h 89 % 0 mm
08:23 14.8 °C 12.9 °C 1013.1 hPa NNE 5.3 km/h 7.4 km/h 88 % 0 mm
08:28 14.8 °C 12.6 °C 1013.1 hPa NNE 3.4 km/h 7.4 km/h 87 % 0 mm
08:33 14.7 °C 12.5 °C 1013.4 hPa North 5.1 km/h 5.6 km/h 87 % 0 mm
08:39 14.7 °C 12.5 °C 1013.1 hPa ENE 4 km/h 9.3 km/h 87 % 0 mm
08:44 14.7 °C 12.7 °C 1013.1 hPa North 4.5 km/h 7.4 km/h 88 % 0 mm
08:49 14.6 °C 12.4 °C 1013.1 hPa ENE 4.3 km/h 6.4 km/h 87 % 0 mm
08:54 14.6 °C 12.7 °C 1013.1 hPa NE 3.1 km/h 5.6 km/h 88 % 0 mm
08:59 14.7 °C 12.5 °C 1013.1 hPa NE 2.9 km/h 7.4 km/h 87 % 0 mm
09:04 14.7 °C 12.8 °C 1012.8 hPa ENE 4.2 km/h 6.4 km/h 88 % 0 mm
09:09 14.8 °C 12.6 °C 1013.1 hPa ENE 0.8 km/h 3.7 km/h 87 % 0 mm
09:14 14.8 °C 12.7 °C 1012.8 hPa ENE 1.4 km/h 3.7 km/h 87 % 0 mm
09:19 14.9 °C 12.7 °C 1013.1 hPa NNE 2.7 km/h 5.6 km/h 87 % 0 mm
09:24 15.1 °C 12.9 °C 1013.1 hPa NNE 1.8 km/h 5.6 km/h 87 % 0 mm
09:29 15.1 °C 12.4 °C 1012.8 hPa NE 2.6 km/h 4.8 km/h 84 % 0 mm
09:34 15.2 °C 12.7 °C 1012.8 hPa NNE 2.3 km/h 6.4 km/h 85 % 0 mm
09:39 15.3 °C 12.8 °C 1012.8 hPa NNE 1.6 km/h 3.7 km/h 85 % 0 mm
09:44 15.4 °C 12.8 °C 1012.8 hPa NE 0.8 km/h 3.7 km/h 84 % 0 mm
09:49 15.5 °C 12.8 °C 1012.8 hPa Calm   1.9 km/h 84 % 0 mm
09:54 15.7 °C 12.9 °C 1012.8 hPa NNE 0.5 km/h 1.9 km/h 84 % 0 mm
09:59 15.8 °C 13.1 °C 1012.8 hPa North 2.1 km/h 5.6 km/h 84 % 0 mm
10:04 15.8 °C 12.9 °C 1012.8 hPa NNE 1.3 km/h 3.7 km/h 83 % 0 mm
10:09 15.9 °C 13.2 °C 1012.4 hPa North 1 km/h 3.2 km/h 84 % 0 mm
10:14 16.1 °C 13.4 °C 1012.8 hPa ENE 0.6 km/h 4.8 km/h 84 % 0 mm
10:19 16.3 °C 13 °C 1012.8 hPa NE 1.8 km/h 5.6 km/h 81 % 0 mm
10:24 16.6 °C 13.4 °C 1012.8 hPa North 0.6 km/h 3.7 km/h 82 % 0 mm
10:29 16.8 °C 13.3 °C 1012.8 hPa NW 2.4 km/h 3.7 km/h 80 % 0 mm
10:34 16.9 °C 13.1 °C 1012.8 hPa NNE 2.7 km/h 3.7 km/h 78 % 0 mm
10:39 17.1 °C 13.2 °C 1012.8 hPa NNE 0.2 km/h 1.6 km/h 78 % 0 mm
10:44 17.1 °C 13.2 °C 1012.8 hPa Calm   1.9 km/h 78 % 0 mm
10:49 17.2 °C 12.7 °C 1013.1 hPa NNE 0.3 km/h 1.9 km/h 75 % 0 mm
10:54 17.2 °C 12.7 °C 1013.1 hPa Calm   1.9 km/h 75 % 0 mm
10:59 17.2 °C 12.1 °C 1013.1 hPa NNE 1.9 km/h 3.7 km/h 72 % 0 mm
11:04 17.2 °C 12.6 °C 1012.8 hPa Calm     74 % 0 mm
11:09 17.3 °C 12.4 °C 1012.8 hPa Calm   3.7 km/h 73 % 0 mm
11:14 17.4 °C 12.9 °C 1012.8 hPa NNE 0.2 km/h 1.6 km/h 75 % 0 mm
11:19 17.6 °C 12.4 °C 1012.8 hPa Calm   3.7 km/h 72 % 0 mm
11:24 17.8 °C 13.7 °C 1012.8 hPa ENE 2.4 km/h 5.6 km/h 77 % 0 mm
11:26 17.9 °C 13.4 °C 1012.8 hPa ENE 1.8 km/h 3.7 km/h 75 % 0 mm
11:31 18 °C 12.4 °C 1012.8 hPa ENE 1.1 km/h 3.7 km/h 70 % 0 mm
11:36 18.1 °C 12.5 °C 1012.4 hPa ENE 0.5 km/h 3.7 km/h 70 % 0 mm
11:41 18.1 °C 12.7 °C 1012.4 hPa ENE 0.6 km/h 3.2 km/h 71 % 0 mm
11:46 18.1 °C 13.3 °C 1012.1 hPa ENE 1 km/h 1.6 km/h 74 % 0 mm
11:51 18 °C 12.7 °C 1012.1 hPa ENE 0.5 km/h 1.9 km/h 71 % 0 mm
11:56 17.9 °C 12.6 °C 1012.1 hPa Calm     71 % 0 mm
12:01 17.8 °C 12.9 °C 1012.1 hPa ENE 0.2 km/h 1.6 km/h 73 % 0 mm
12:06 17.7 °C 12.4 °C 1012.1 hPa Calm     71 % 0 mm
12:11 17.8 °C 12.9 °C 1011.7 hPa ENE 0.6 km/h 1.6 km/h 73 % 0 mm
12:16 17.8 °C 12.9 °C 1012.1 hPa ENE 0.6 km/h 1.6 km/h 73 % 0 mm
12:21 17.9 °C 13 °C 1012.1 hPa ENE 0.6 km/h 1.9 km/h 73 % 0 mm
12:26 17.9 °C 12.8 °C 1012.1 hPa Calm     72 % 0 mm
12:31 18.2 °C 13.1 °C 1012.1 hPa Calm     72 % 0 mm
12:37 18.4 °C 13.9 °C 1012.1 hPa Calm     75 % 0 mm
12:42 18.7 °C 13.3 °C 1012.1 hPa Calm   1.9 km/h 71 % 0 mm
12:47 18.8 °C 13.4 °C 1011.7 hPa Calm     71 % 0 mm
12:52 19 °C 13.6 °C 1011.7 hPa Calm   1.9 km/h 71 % 0 mm
12:57 19.1 °C 12.8 °C 1011.7 hPa ENE 0.8 km/h 3.7 km/h 67 % 0 mm
13:02 19.2 °C 13.1 °C 1011.7 hPa North 0.6 km/h 3.7 km/h 68 % 0 mm
13:07 19.3 °C 12.8 °C 1011.7 hPa Calm   1.9 km/h 66 % 0 mm
13:12 19.4 °C 13.3 °C 1011.4 hPa NNW 0.3 km/h 5.6 km/h 68 % 0 mm
13:17 19.5 °C 13.4 °C 1011.4 hPa NNW 2.7 km/h 3.7 km/h 68 % 0 mm
13:22 19.6 °C 13.1 °C 1011.4 hPa NNW 0.5 km/h 1.9 km/h 66 % 0 mm
13:27 19.7 °C 13.4 °C 1011.4 hPa Calm   3.7 km/h 67 % 0 mm
13:32 19.7 °C 12.5 °C 1011.1 hPa NNW 0.8 km/h 1.9 km/h 63 % 0 mm
13:37 19.8 °C 13.3 °C 1011.1 hPa NNW 0.6 km/h   66 % 0 mm
13:42 19.9 °C 13.2 °C 1011.1 hPa Calm     65 % 0 mm
13:47 20 °C 13 °C 1011.1 hPa NNW 0.2 km/h 1.9 km/h 64 % 0 mm
13:49 20.1 °C 13.5 °C 1011.1 hPa NNW 0.2 km/h 1.9 km/h 66 % 0 mm
13:54 20.2 °C 14.1 °C 1011.1 hPa Calm     68 % 0 mm
13:59 20.2 °C 13.9 °C 1011.1 hPa NNW 0.2 km/h 1.6 km/h 67 % 0 mm
14:04 20.3 °C 12.8 °C 1011.1 hPa NW 1.1 km/h 5.6 km/h 62 % 0 mm
14:09 20.3 °C 13.3 °C 1011.1 hPa Calm     64 % 0 mm
14:14 20.4 °C 13.6 °C 1011.1 hPa NW 1.3 km/h 3.7 km/h 65 % 0 mm
14:19 20.4 °C 13.9 °C 1011.1 hPa NW 1.4 km/h 1.9 km/h 66 % 0 mm
14:24 20.6 °C 13.5 °C 1010.7 hPa SW 0.6 km/h 3.7 km/h 64 % 0 mm
14:29 20.7 °C 13.6 °C 1010.7 hPa Calm     64 % 0 mm
14:34 20.8 °C 13.5 °C 1010.7 hPa Calm   1.9 km/h 63 % 0 mm
14:39 20.9 °C 12.8 °C 1010.7 hPa WSW 3.1 km/h 4.8 km/h 60 % 0 mm
14:44 21.1 °C 13.5 °C 1010.7 hPa Calm     62 % 0 mm
14:49 21.2 °C 13.2 °C 1010.4 hPa Calm   1.9 km/h 60 % 0 mm
14:54 21.4 °C 13.8 °C 1010.4 hPa West 3.2 km/h 5.6 km/h 62 % 0 mm
14:59 21.6 °C 12.7 °C 1010.4 hPa WSW 2.6 km/h 7.4 km/h 57 % 0 mm
15:04 21.7 °C 13.1 °C 1010.4 hPa NW 2.4 km/h 7.4 km/h 58 % 0 mm
15:09 21.8 °C 13.4 °C 1010.4 hPa West 2.1 km/h 5.6 km/h 59 % 0 mm
15:15 21.8 °C 12.3 °C 1010.4 hPa WSW 5.1 km/h 6.4 km/h 55 % 0 mm
15:20 21.8 °C 12.6 °C 1010.4 hPa WSW 0.2 km/h 1.9 km/h 56 % 0 mm
15:25 21.7 °C 13.1 °C 1010.4 hPa Calm   1.9 km/h 58 % 0 mm
15:30 21.6 °C 13 °C 1010 hPa SW 0.3 km/h 5.6 km/h 58 % 0 mm
15:35 21.6 °C 12.7 °C 1010 hPa SW 0.5 km/h 3.7 km/h 57 % 0 mm
15:40 21.5 °C 13.4 °C 1010 hPa SW 1 km/h 3.7 km/h 60 % 0 mm
15:45 21.4 °C 13.1 °C 1010 hPa WSW 3.5 km/h 5.6 km/h 59 % 0 mm
15:50 21.4 °C 12.2 °C 1010 hPa WSW 0.5 km/h 5.6 km/h 56 % 0 mm
15:55 21.4 °C 12.8 °C 1009.7 hPa WSW 2.3 km/h 3.7 km/h 58 % 0 mm
16:00 21.3 °C 13.5 °C 1009.7 hPa WSW 1.1 km/h 3.7 km/h 61 % 0 mm
16:05 21.3 °C 13.2 °C 1009.7 hPa WSW 0.5 km/h 1.9 km/h 60 % 0 mm
16:10 21.3 °C 13.2 °C 1009.7 hPa West 1.6 km/h 6.4 km/h 60 % 0 mm
16:15 21.3 °C 12.7 °C 1009.7 hPa West 3.2 km/h 8 km/h 58 % 0 mm
16:20 21.2 °C 13.2 °C 1009.7 hPa West 4.8 km/h 6.4 km/h 60 % 0 mm
16:25 21.2 °C 13.1 °C 1009.7 hPa West 1.6 km/h 3.2 km/h 60 % 0 mm
16:30 21.2 °C 13.1 °C 1009.7 hPa West 1.6 km/h 6.4 km/h 60 % 0 mm
16:35 21.2 °C 13.1 °C 1009.7 hPa Calm   3.2 km/h 60 % 0 mm
16:40 21.2 °C 12.8 °C 1009.7 hPa WSW 1.6 km/h 8 km/h 59 % 0 mm
16:45 21.1 °C 13.1 °C 1009.7 hPa WSW 3.2 km/h 8 km/h 60 % 0 mm
16:50 21.1 °C 12.8 °C 1009.7 hPa WSW 1.6 km/h 4.8 km/h 59 % 0 mm
16:55 21.1 °C 13 °C 1009.7 hPa West 1.6 km/h 4.8 km/h 60 % 0 mm
17:05 20.9 °C 12.9 °C 1009.4 hPa WNW 1.6 km/h 4.8 km/h 60 % 0 mm
17:10 20.9 °C 12.8 °C 1009.4 hPa Calm   4.8 km/h 60 % 0 mm
17:18 20.8 °C 12.7 °C 1009.4 hPa WNW 3.4 km/h 5.6 km/h 60 % 0 mm
17:23 20.7 °C 12.4 °C 1009.4 hPa WNW 0.2 km/h 3.7 km/h 59 % 0 mm
17:28 20.7 °C 12.6 °C 1009 hPa WNW 0.2 km/h 1.9 km/h 60 % 0 mm
17:33 20.6 °C 12.8 °C 1009 hPa West 0.3 km/h 5.6 km/h 61 % 0 mm
17:38 20.6 °C 12.8 °C 1009 hPa West 0.2 km/h 1.9 km/h 61 % 0 mm
17:43 20.5 °C 12.4 °C 1009 hPa West 0.5 km/h 1.9 km/h 60 % 0 mm
17:48 20.4 °C 12.9 °C 1009 hPa WNW 0.3 km/h 3.2 km/h 62 % 0 mm
17:53 20.4 °C 12.9 °C 1009 hPa Calm   3.7 km/h 62 % 0 mm
17:58 20.3 °C 13.3 °C 1009 hPa Calm     64 % 0 mm
18:03 20.3 °C 13.2 °C 1008.7 hPa Calm     64 % 0 mm
18:08 20.2 °C 13.2 °C 1008.7 hPa Calm     64 % 0 mm
18:13 20.2 °C 13.4 °C 1009 hPa WNW 0.2 km/h 1.6 km/h 65 % 0 mm
18:19 20.1 °C 13.3 °C 1009 hPa Calm     65 % 0 mm
18:24 20.1 °C 13.1 °C 1008.7 hPa Calm     64 % 0 mm
18:29 20.1 °C 13.3 °C 1008.7 hPa Calm   1.9 km/h 65 % 0 mm
18:34 20.1 °C 13.1 °C 1008.7 hPa Calm     64 % 0 mm
18:39 20 °C 13.2 °C 1008.7 hPa Calm     65 % 0 mm
18:44 19.9 °C 13.4 °C 1008.7 hPa Calm     66 % 0 mm
18:49 19.9 °C 13.1 °C 1008.7 hPa Calm     65 % 0 mm
18:54 19.9 °C 13.1 °C 1008.7 hPa Calm     65 % 0 mm
18:55 19.8 °C 13.1 °C 1008.4 hPa Calm     65 % 0 mm
19:00 19.8 °C 13.2 °C 1008.7 hPa Calm     66 % 0 mm
19:05 19.8 °C 13.4 °C 1008.7 hPa Calm     67 % 0 mm
19:10 19.7 °C 13.7 °C 1008.7 hPa Calm     68 % 0 mm
19:15 19.7 °C 13.8 °C 1008.7 hPa Calm     69 % 0 mm
19:20 19.6 °C 13.7 °C 1008.7 hPa Calm     69 % 0 mm
19:25 19.5 °C 13.7 °C 1009 hPa Calm     69 % 0 mm
19:30 19.4 °C 13.6 °C 1008.7 hPa Calm     69 % 0 mm
19:35 19.3 °C 13.9 °C 1008.7 hPa Calm     71 % 0 mm
19:40 19.2 °C 14.1 °C 1008.7 hPa Calm     72 % 0 mm
19:45 19.1 °C 13.9 °C 1008.7 hPa Calm     72 % 0 mm
19:50 19 °C 13.8 °C 1008.7 hPa Calm     72 % 0 mm
19:55 18.9 °C 14.2 °C 1008.7 hPa Calm     74 % 0 mm
20:01 18.8 °C 14.1 °C 1008.7 hPa Calm     74 % 0 mm
20:06 18.7 °C 13.9 °C 1009 hPa Calm     74 % 0 mm
20:11 18.6 °C 13.8 °C 1008.7 hPa Calm     74 % 0 mm
20:16 18.4 °C 13.7 °C 1008.7 hPa Calm   1.6 km/h 74 % 0 mm
20:21 18.3 °C 13.3 °C 1008.7 hPa Calm     73 % 0 mm
20:26 18.1 °C 13.2 °C 1008.7 hPa Calm   1.6 km/h 73 % 0 mm
20:31 18 °C 12.9 °C 1008.7 hPa Calm     72 % 0 mm
20:36 17.9 °C 12.8 °C 1008.7 hPa Calm     72 % 0 mm
20:41 17.8 °C 12.9 °C 1008.7 hPa Calm     73 % 0 mm
20:46 17.7 °C 12.6 °C 1008.7 hPa WNW 0.2 km/h 1.9 km/h 72 % 0 mm
20:51 17.6 °C 12.7 °C 1008.7 hPa Calm     73 % 0 mm
20:56 17.4 °C 12.6 °C 1008.7 hPa Calm     73 % 0 mm
21:01 17.3 °C 12.4 °C 1008.7 hPa Calm     73 % 0 mm
21:06 17.3 °C 12.4 °C 1008.7 hPa Calm     73 % 0 mm
21:11 17.2 °C 12.1 °C 1008.7 hPa Calm     72 % 0 mm
21:16 17.1 °C 12.2 °C 1008.7 hPa Calm     73 % 0 mm
21:21 17 °C 12.1 °C 1008.7 hPa Calm     73 % 0 mm
21:26 16.9 °C 12.1 °C 1009 hPa Calm     73 % 0 mm
21:31 16.8 °C 11.9 °C 1009 hPa Calm     73 % 0 mm
21:36 16.8 °C 11.9 °C 1009 hPa Calm     73 % 0 mm
21:41 16.7 °C 11.8 °C 1009 hPa Calm     73 % 0 mm
21:46 16.7 °C 11.8 °C 1009 hPa Calm     73 % 0 mm
21:51 16.6 °C 11.7 °C 1009 hPa Calm     73 % 0 mm
21:56 16.4 °C 11.6 °C 1009 hPa Calm     73 % 0 mm
22:01 16.3 °C 11.5 °C 1009 hPa Calm     73 % 0 mm
22:06 16.3 °C 11.4 °C 1009 hPa Calm     73 % 0 mm
22:11 16.3 °C 11.6 °C 1009 hPa West 1.1 km/h 3.7 km/h 74 % 0 mm
22:16 16.2 °C 11.6 °C 1009 hPa West 0.6 km/h 3.7 km/h 74 % 0 mm
22:21 16.2 °C 11.5 °C 1009 hPa Calm   1.9 km/h 74 % 0 mm
22:26 16.1 °C 11.5 °C 1009 hPa West 0.6 km/h 1.9 km/h 74 % 0 mm
22:31 16.1 °C 11.2 °C 1009 hPa Calm   1.9 km/h 73 % 0 mm
22:36 15.9 °C 11.1 °C 1009 hPa Calm     73 % 0 mm
22:41 15.9 °C 11.1 °C 1008.7 hPa Calm     73 % 0 mm
22:46 15.8 °C 10.9 °C 1008.4 hPa Calm     73 % 0 mm
22:51 15.8 °C 10.9 °C 1008.4 hPa West 0.3 km/h 1.9 km/h 73 % 0 mm
22:56 15.7 °C 10.9 °C 1008.7 hPa Calm   1.9 km/h 73 % 0 mm
23:01 15.7 °C 10.8 °C 1008.7 hPa Calm   1.9 km/h 73 % 0 mm
23:06 15.6 °C 11 °C 1008.4 hPa West 0.2 km/h 1.9 km/h 74 % 0 mm
23:11 15.6 °C 10.9 °C 1008.4 hPa Calm   1.9 km/h 74 % 0 mm
23:16 15.5 °C 10.9 °C 1008.4 hPa Calm     74 % 0 mm
23:21 15.4 °C 10.8 °C 1008 hPa Calm     74 % 0 mm
23:26 15.3 °C 10.7 °C 1008 hPa Calm   1.9 km/h 74 % 0 mm
23:31 15.3 °C 10.7 °C 1008 hPa Calm     74 % 0 mm
23:36 15.3 °C 10.7 °C 1008 hPa Calm     74 % 0 mm
23:42 15.2 °C 10.8 °C 1007.7 hPa Calm     75 % 0 mm
23:47 15.2 °C 10.8 °C 1007.7 hPa West 0.2 km/h 1.6 km/h 75 % 0 mm
23:52 15.1 °C 10.7 °C 1007.7 hPa Calm     75 % 0 mm
23:57 15.1 °C 10.8 °C 1007.7 hPa Calm     76 % 0 mm
Crab Meadow Weather
Compliments of Weather Underground - 3 mb

Script developed by  Jim McMurry - jmcmurry@mwt.net Adapted for the template by  Wim van der Kuil - Leuven-Template.eu

Weather Terms: Advisory - An advisory is issued when a hazardous weather or hydrologic event is occurring, imminent or likely. Advisories are for less serious conditions than warnings, that cause significant inconvenience and if caution is not exercised, could lead to situations that may threaten life or property.